Time;durP1;ratioP1;P1;durP2;ratioP2;P2;SDS_P1;SDS_P2;PMS_P1;PMS_P2;Temp;Humidity;BMP_temperature;BMP_pressure;BME280_temperature;BME280_humidity;BME280_pressure;Samples;Min_cycle;Max_cycle;Signal;HPM_P1;HPM_P2
2022/09/03 00:00:08;;;;;;;2.10;1.10;;;16.00;99.90;;;;;;4992418;28;20926;-70
2022/09/03 00:02:37;;;;;;;2.70;1.70;;;16.00;99.90;;;;;;4992436;28;20431;-70
2022/09/03 00:05:15;;;;;;;2.87;1.67;;;16.00;99.90;;;;;;4994185;28;20427;-70
2022/09/03 00:08:00;;;;;;;2.07;1.30;;;16.00;99.90;;;;;;5006217;28;20517;-70
2022/09/03 00:10:51;;;;;;;3.07;1.67;;;16.00;99.90;;;;;;5012283;28;20461;-70
2022/09/03 00:13:27;;;;;;;4.67;1.50;;;16.00;99.90;;;;;;4991954;28;20463;-70
2022/09/03 00:15:56;;;;;;;2.00;1.30;;;16.00;99.90;;;;;;4992716;28;20501;-70
2022/09/03 00:18:27;;;;;;;3.97;1.80;;;16.00;99.90;;;;;;4992430;28;20426;-70
2022/09/03 00:21:07;;;;;;;20.83;1.90;;;16.00;99.90;;;;;;4994774;28;20928;-70
2022/09/03 00:23:37;;;;;;;2.97;1.60;;;16.00;99.90;;;;;;5001346;28;20969;-70
2022/09/03 00:26:11;;;;;;;3.40;1.10;;;15.90;99.90;;;;;;4995805;28;20452;-70
2022/09/03 00:28:49;;;;;;;3.10;1.73;;;15.90;99.90;;;;;;4998805;28;20453;-70
2022/09/03 00:31:28;;;;;;;3.63;1.20;;;15.90;99.90;;;;;;4988148;28;20418;-70
2022/09/03 00:33:59;;;;;;;5.47;1.60;;;15.90;99.90;;;;;;4995057;28;20557;-70
2022/09/03 00:36:34;;;;;;;2.43;1.40;;;15.90;99.90;;;;;;4992237;28;20428;-70
2022/09/03 00:38:59;;;;;;;21.20;2.23;;;15.90;99.90;;;;;;4992304;28;20425;-70
2022/09/03 00:41:37;;;;;;;6.43;2.20;;;15.90;99.90;;;;;;5003423;28;20512;-71
2022/09/03 00:44:08;;;;;;;6.97;1.60;;;15.90;99.90;;;;;;4993119;28;20667;-70
2022/09/03 00:46:50;;;;;;;3.73;1.83;;;15.90;99.90;;;;;;4992201;28;20547;-70
2022/09/03 00:49:24;;;;;;;3.27;1.30;;;15.90;99.90;;;;;;5001504;28;20452;-70
2022/09/03 00:52:02;;;;;;;6.20;2.07;;;15.80;99.90;;;;;;5008632;28;20424;-70
2022/09/03 00:55:18;;;;;;;3.00;1.77;;;15.80;99.90;;;;;;5002997;28;20477;-70
2022/09/03 00:57:46;;;;;;;4.60;1.90;;;15.80;99.90;;;;;;4993114;28;20465;-71
2022/09/03 01:00:20;;;;;;;3.60;1.90;;;15.70;99.90;;;;;;4995345;28;20435;-69
2022/09/03 01:03:10;;;;;;;3.80;1.77;;;15.70;99.90;;;;;;5007588;28;20465;-69
2022/09/03 01:06:02;;;;;;;2.20;1.43;;;15.70;99.90;;;;;;4995553;28;20422;-69
2022/09/03 01:08:58;;;;;;;5.30;2.00;;;15.80;99.90;;;;;;4981696;28;20450;-69
2022/09/03 01:11:30;;;;;;;3.13;1.13;;;15.80;99.90;;;;;;4999261;28;20457;-70
2022/09/03 01:13:58;;;;;;;3.27;1.47;;;15.80;99.90;;;;;;5002756;28;20471;-69
2022/09/03 01:16:24;;;;;;;2.37;1.20;;;15.80;99.90;;;;;;4995414;28;20425;-69
2022/09/03 01:19:07;;;;;;;2.57;1.57;;;15.70;99.90;;;;;;4994986;28;20970;-69
2022/09/03 01:21:51;;;;;;;5.53;2.43;;;15.70;99.90;;;;;;4995012;28;20198;-68
2022/09/03 01:24:39;;;;;;;4.53;1.50;;;15.70;99.90;;;;;;4995290;28;21027;-69
2022/09/03 01:27:14;;;;;;;2.57;1.50;;;15.70;99.90;;;;;;4994571;28;20433;-69
2022/09/03 01:30:02;;;;;;;2.77;1.47;;;15.70;99.90;;;;;;4995129;28;20426;-69
2022/09/03 01:32:41;;;;;;;6.17;1.50;;;15.70;99.90;;;;;;4993850;28;20458;-69
2022/09/03 01:35:14;;;;;;;2.33;1.47;;;15.70;99.90;;;;;;4994998;28;20872;-70
2022/09/03 01:37:40;;;;;;;12.03;1.43;;;15.70;99.90;;;;;;4994813;28;20443;-69
2022/09/03 01:40:19;;;;;;;2.70;1.37;;;15.70;99.90;;;;;;4994818;28;20463;-69
2022/09/03 01:43:14;;;;;;;2.30;1.50;;;15.70;99.90;;;;;;5002819;28;20183;-69
2022/09/03 01:45:47;;;;;;;3.60;2.13;;;15.70;99.90;;;;;;4993578;28;20518;-69
2022/09/03 01:48:31;;;;;;;3.70;1.67;;;15.70;99.90;;;;;;4994330;28;20430;-69
2022/09/03 01:51:40;;;;;;;2.43;1.60;;;15.70;99.90;;;;;;5003503;28;20437;-69
2022/09/03 01:54:38;;;;;;;3.07;1.33;;;15.60;99.90;;;;;;4971806;28;20483;-69
2022/09/03 01:57:26;;;;;;;2.40;1.40;;;15.60;99.90;;;;;;4991339;28;20983;-70
2022/09/03 02:00:00;;;;;;;2.30;1.33;;;15.50;99.90;;;;;;4994495;28;20446;-69
2022/09/03 02:02:27;;;;;;;2.63;1.30;;;15.50;99.90;;;;;;4993650;28;20441;-70
2022/09/03 02:05:08;;;;;;;2.50;1.33;;;15.50;99.90;;;;;;4993284;28;20505;-69
2022/09/03 02:07:59;;;;;;;2.97;1.23;;;15.40;99.90;;;;;;4994195;28;20854;-69
2022/09/03 02:10:31;;;;;;;2.53;1.50;;;15.40;99.90;;;;;;4994049;28;20419;-69
2022/09/03 02:13:19;;;;;;;2.67;1.37;;;15.40;99.90;;;;;;4993458;28;20466;-70
2022/09/03 02:15:47;;;;;;;3.73;1.20;;;15.40;99.90;;;;;;4992725;28;20776;-70
2022/09/03 02:18:24;;;;;;;2.87;1.57;;;15.40;99.90;;;;;;4995039;28;21364;-69
2022/09/03 02:20:53;;;;;;;3.83;1.93;;;15.40;99.90;;;;;;4994229;28;20427;-69
2022/09/03 02:23:19;;;;;;;2.30;1.20;;;15.40;99.90;;;;;;4994095;28;20427;-70
2022/09/03 02:25:51;;;;;;;4.37;1.77;;;15.40;99.90;;;;;;4996026;28;20438;-70
2022/09/03 02:28:17;;;;;;;2.03;1.20;;;15.40;99.90;;;;;;5013394;28;20457;-70
2022/09/03 02:30:43;;;;;;;3.87;1.73;;;15.30;99.90;;;;;;5000737;28;21080;-70
2022/09/03 02:33:10;;;;;;;5.90;1.53;;;15.40;99.90;;;;;;5012121;28;20469;-70
2022/09/03 02:35:35;;;;;;;2.90;1.43;;;15.40;99.90;;;;;;5001183;28;20192;-70
2022/09/03 02:38:17;;;;;;;2.53;1.33;;;15.40;99.90;;;;;;4999679;28;21001;-70
2022/09/03 02:40:43;;;;;;;8.63;2.30;;;15.40;99.90;;;;;;5007132;28;20203;-69
2022/09/03 02:43:16;;;;;;;1.90;1.27;;;15.40;99.90;;;;;;4992902;28;20431;-69
2022/09/03 02:45:46;;;;;;;2.90;0.90;;;15.40;99.90;;;;;;4993792;28;20423;-69
2022/09/03 02:48:16;;;;;;;1.97;1.10;;;15.40;99.90;;;;;;4994169;28;20453;-69
2022/09/03 02:50:42;;;;;;;4.37;1.27;;;15.30;99.90;;;;;;4993706;28;20485;-70
2022/09/03 02:53:08;;;;;;;4.50;1.53;;;15.30;99.90;;;;;;4993656;28;20474;-69
2022/09/03 02:55:34;;;;;;;2.27;1.53;;;15.30;99.90;;;;;;4993782;28;21160;-69
2022/09/03 02:58:00;;;;;;;2.33;1.40;;;15.20;99.90;;;;;;4993019;28;20423;-69
2022/09/03 03:00:27;;;;;;;2.10;1.43;;;15.20;99.90;;;;;;4993507;28;20511;-70
2022/09/03 03:02:54;;;;;;;2.37;1.47;;;15.10;99.90;;;;;;4992623;28;20430;-69
2022/09/03 03:05:26;;;;;;;3.80;1.43;;;15.10;99.90;;;;;;4992930;28;20458;-69
2022/09/03 03:07:52;;;;;;;2.57;1.63;;;15.10;99.90;;;;;;4993324;28;20919;-70
2022/09/03 03:10:17;;;;;;;5.80;2.20;;;15.00;99.90;;;;;;4993002;28;20423;-69
2022/09/03 03:12:43;;;;;;;2.03;1.30;;;15.00;99.90;;;;;;4991906;28;20602;-70
2022/09/03 03:15:09;;;;;;;4.43;1.83;;;15.00;99.90;;;;;;5002124;28;20594;-70
2022/09/03 03:17:34;;;;;;;2.37;1.23;;;14.90;99.90;;;;;;4996740;28;20183;-69
2022/09/03 03:20:00;;;;;;;2.80;1.40;;;14.90;99.90;;;;;;4992776;28;20237;-70
2022/09/03 03:22:25;;;;;;;3.47;1.83;;;14.90;99.90;;;;;;4992314;28;20541;-69
2022/09/03 03:24:51;;;;;;;2.60;1.30;;;14.90;99.90;;;;;;4992879;28;20176;-69
2022/09/03 03:27:17;;;;;;;2.90;1.53;;;14.90;99.90;;;;;;4992447;28;20183;-69
2022/09/03 03:29:43;;;;;;;3.47;2.10;;;14.90;99.90;;;;;;5000166;28;20186;-69
2022/09/03 03:32:08;;;;;;;1.80;1.37;;;14.90;99.90;;;;;;4995955;28;20419;-69
2022/09/03 03:34:34;;;;;;;3.57;2.00;;;14.90;99.90;;;;;;5001319;28;20670;-69
2022/09/03 03:37:00;;;;;;;4.27;1.60;;;14.90;99.90;;;;;;5010405;28;20680;-69
2022/09/03 03:39:25;;;;;;;5.03;1.57;;;14.90;99.90;;;;;;5001085;28;20202;-69
2022/09/03 03:41:51;;;;;;;3.90;1.87;;;14.90;99.90;;;;;;4996638;28;20628;-70
2022/09/03 03:44:19;;;;;;;3.63;1.90;;;14.90;99.90;;;;;;4992687;28;20188;-69
2022/09/03 03:46:45;;;;;;;2.90;2.00;;;14.90;99.90;;;;;;4992785;28;20218;-69
2022/09/03 03:49:11;;;;;;;6.50;1.63;;;15.00;99.90;;;;;;4992667;28;20427;-69
2022/09/03 03:51:37;;;;;;;2.63;1.63;;;15.00;99.90;;;;;;5005293;28;20456;-70
2022/09/03 03:54:03;;;;;;;4.60;1.93;;;15.00;99.90;;;;;;5001043;28;20213;-69
2022/09/03 03:56:29;;;;;;;5.27;2.30;;;15.00;99.90;;;;;;4997384;28;20415;-69
2022/09/03 03:58:56;;;;;;;11.13;1.90;;;15.10;99.90;;;;;;4992318;28;20422;-70
2022/09/03 04:01:24;;;;;;;3.13;1.17;;;15.10;99.90;;;;;;4992293;28;20262;-69
2022/09/03 04:03:50;;;;;;;4.10;1.80;;;15.20;99.90;;;;;;4992578;28;20427;-69
2022/09/03 04:06:18;;;;;;;4.60;2.10;;;15.30;99.90;;;;;;4992820;28;20462;-70
2022/09/03 04:08:46;;;;;;;2.70;1.67;;;15.30;99.90;;;;;;5001786;28;20418;-69
2022/09/03 04:11:20;;;;;;;3.50;1.93;;;15.40;99.90;;;;;;4995698;28;20426;-70
2022/09/03 04:13:46;;;;;;;7.40;2.27;;;15.50;99.90;;;;;;4991928;28;20546;-70
2022/09/03 04:16:17;;;;;;;3.97;2.37;;;15.70;99.90;;;;;;4992611;28;20837;-69
2022/09/03 04:18:43;;;;;;;3.70;2.40;;;15.80;99.90;;;;;;5003121;28;20770;-69
2022/09/03 04:21:20;;;;;;;3.23;1.60;;;15.80;99.90;;;;;;4994052;28;20534;-69
2022/09/03 04:23:48;;;;;;;3.10;2.00;;;15.90;99.90;;;;;;4992365;28;20423;-70
2022/09/03 04:26:16;;;;;;;5.60;2.20;;;15.90;99.90;;;;;;4992378;28;20427;-70
2022/09/03 04:28:43;;;;;;;2.57;1.50;;;15.90;99.90;;;;;;4993665;28;20417;-69
2022/09/03 04:31:11;;;;;;;4.97;2.20;;;15.90;99.90;;;;;;4995531;28;20452;-69
2022/09/03 04:33:37;;;;;;;5.27;2.33;;;15.90;99.90;;;;;;4995043;28;20521;-69
2022/09/03 04:36:10;;;;;;;4.60;2.10;;;15.90;99.90;;;;;;4995926;28;20419;-69
2022/09/03 04:38:38;;;;;;;12.43;2.40;;;15.90;99.90;;;;;;4995630;28;20418;-69
2022/09/03 04:41:06;;;;;;;5.40;2.67;;;15.90;99.90;;;;;;4995536;28;20430;-69
2022/09/03 04:43:32;;;;;;;5.20;2.80;;;15.90;99.90;;;;;;4995232;28;20458;-69
2022/09/03 04:45:59;;;;;;;2.60;1.90;;;16.00;99.90;;;;;;4996006;28;20454;-70
2022/09/03 04:48:26;;;;;;;6.13;2.47;;;16.00;99.90;;;;;;4995587;28;20176;-69
2022/09/03 04:50:53;;;;;;;3.20;2.20;;;16.00;99.90;;;;;;4995237;28;20473;-69
2022/09/03 04:53:18;;;;;;;5.33;2.40;;;16.00;99.90;;;;;;4995038;28;20939;-69
2022/09/03 04:55:44;;;;;;;4.53;2.20;;;16.00;99.90;;;;;;4995639;28;20447;-69
2022/09/03 04:58:09;;;;;;;3.77;2.10;;;16.00;99.90;;;;;;4995134;28;20192;-69
2022/09/03 05:00:36;;;;;;;5.90;2.50;;;16.00;99.90;;;;;;5000166;28;20517;-69
2022/09/03 05:03:03;;;;;;;2.83;1.70;;;16.00;99.90;;;;;;4997578;28;20772;-69
2022/09/03 05:05:30;;;;;;;5.30;2.40;;;16.00;99.90;;;;;;4996177;28;20573;-68
2022/09/03 05:08:02;;;;;;;24.27;2.30;;;16.00;99.90;;;;;;5008422;28;20427;-69
2022/09/03 05:10:29;;;;;;;3.60;2.10;;;16.10;99.90;;;;;;4995307;28;20419;-69
2022/09/03 05:13:00;;;;;;;4.67;3.37;;;16.10;99.90;;;;;;4994072;28;20489;-69
2022/09/03 05:15:27;;;;;;;5.60;2.60;;;16.10;99.90;;;;;;4995459;28;20505;-68
2022/09/03 05:17:57;;;;;;;3.97;2.37;;;16.10;99.90;;;;;;4995089;28;20424;-68
2022/09/03 05:20:23;;;;;;;4.13;1.97;;;16.10;99.90;;;;;;4994961;28;20462;-68
2022/09/03 05:22:49;;;;;;;9.20;2.30;;;16.10;99.90;;;;;;4994491;28;20423;-69
2022/09/03 05:25:15;;;;;;;7.27;2.87;;;16.10;99.90;;;;;;4995268;28;20758;-69
2022/09/03 05:27:41;;;;;;;6.23;3.13;;;16.20;99.90;;;;;;4994504;28;20180;-69
2022/09/03 05:30:07;;;;;;;5.80;2.80;;;16.20;99.90;;;;;;4995016;28;20191;-69
2022/09/03 05:32:33;;;;;;;4.47;2.40;;;16.20;99.90;;;;;;4993737;28;20199;-68
2022/09/03 05:34:58;;;;;;;3.13;2.03;;;16.30;99.90;;;;;;4994675;28;20179;-69
2022/09/03 05:37:24;;;;;;;4.20;2.73;;;16.30;99.90;;;;;;5007682;28;20419;-68
2022/09/03 05:39:50;;;;;;;6.87;3.20;;;16.40;99.90;;;;;;4993441;28;20184;-69
2022/09/03 05:42:15;;;;;;;4.50;2.50;;;16.40;99.90;;;;;;4994302;28;20176;-69
2022/09/03 05:44:42;;;;;;;4.63;2.50;;;16.40;99.90;;;;;;4994575;28;20191;-68
2022/09/03 05:47:08;;;;;;;4.77;2.40;;;16.40;99.90;;;;;;5007571;28;20218;-69
2022/09/03 05:49:33;;;;;;;5.13;2.43;;;16.40;99.90;;;;;;4994272;28;20450;-69
2022/09/03 05:51:59;;;;;;;3.37;2.10;;;16.40;99.90;;;;;;4993751;28;20211;-68
2022/09/03 05:54:25;;;;;;;3.43;2.23;;;16.40;99.90;;;;;;4994564;28;20215;-68
2022/09/03 05:56:50;;;;;;;4.37;2.70;;;16.40;99.90;;;;;;4994061;28;20271;-69
2022/09/03 05:59:16;;;;;;;8.23;3.37;;;16.40;99.90;;;;;;4994077;28;20230;-68
2022/09/03 06:01:44;;;;;;;4.13;2.17;;;16.40;99.90;;;;;;4993399;28;20180;-69
2022/09/03 06:04:13;;;;;;;5.67;2.30;;;16.40;99.90;;;;;;4993636;28;20271;-68
2022/09/03 06:06:41;;;;;;;3.47;2.00;;;16.40;99.90;;;;;;4994246;28;20431;-69
2022/09/03 06:09:12;;;;;;;6.70;3.00;;;16.40;99.90;;;;;;4994188;28;20766;-69
2022/09/03 06:11:40;;;;;;;3.53;1.90;;;16.50;99.90;;;;;;4993627;28;20423;-69
2022/09/03 06:14:08;;;;;;;5.70;2.40;;;16.50;99.90;;;;;;4993567;28;20470;-68
2022/09/03 06:16:37;;;;;;;3.87;2.17;;;16.50;99.90;;;;;;4994187;28;20494;-68
2022/09/03 06:19:08;;;;;;;3.97;2.40;;;16.60;99.90;;;;;;5006612;28;20911;-69
2022/09/03 06:21:35;;;;;;;7.60;2.90;;;16.70;99.90;;;;;;4993593;28;20750;-69
2022/09/03 06:24:01;;;;;;;5.20;2.90;;;16.70;99.90;;;;;;4993671;28;20438;-69
2022/09/03 06:26:28;;;;;;;7.73;3.17;;;16.70;99.90;;;;;;4993847;28;20475;-69
2022/09/03 06:28:55;;;;;;;5.23;2.37;;;16.70;99.90;;;;;;4995027;28;20427;-68
2022/09/03 06:31:21;;;;;;;8.43;2.20;;;16.80;99.90;;;;;;5004741;28;20423;-69
2022/09/03 06:33:47;;;;;;;5.87;2.30;;;16.80;99.90;;;;;;4992415;28;20458;-69
2022/09/03 06:36:15;;;;;;;3.23;2.33;;;16.90;99.90;;;;;;4993423;28;20931;-68
2022/09/03 06:38:42;;;;;;;3.90;1.80;;;16.90;99.90;;;;;;4993434;28;20187;-68
2022/09/03 06:41:20;;;;;;;21.53;2.37;;;16.90;99.90;;;;;;4993000;28;20465;-69
2022/09/03 06:43:47;;;;;;;2.20;1.37;;;17.00;99.90;;;;;;4993001;28;20558;-69
2022/09/03 06:46:15;;;;;;;6.73;2.13;;;17.00;99.90;;;;;;4993503;28;20451;-69
2022/09/03 06:48:41;;;;;;;2.97;1.83;;;17.00;99.90;;;;;;4993296;28;20439;-69
2022/09/03 06:51:18;;;;;;;3.03;2.07;;;17.10;99.90;;;;;;4992343;28;20434;-69
2022/09/03 06:53:47;;;;;;;3.67;2.37;;;17.20;99.90;;;;;;4993290;28;20476;-69
2022/09/03 06:56:15;;;;;;;4.10;2.30;;;17.30;99.90;;;;;;4993598;28;20483;-69
2022/09/03 06:58:46;;;;;;;4.87;2.13;;;17.40;99.90;;;;;;4992995;28;20896;-68
2022/09/03 07:01:13;;;;;;;5.23;1.53;;;17.50;99.90;;;;;;4992779;28;20431;-69
2022/09/03 07:03:40;;;;;;;3.17;1.90;;;17.50;99.90;;;;;;4997519;28;21254;-68
2022/09/03 07:06:15;;;;;;;4.60;2.57;;;17.50;99.90;;;;;;4993040;28;20423;-69
2022/09/03 07:08:41;;;;;;;5.10;2.07;;;17.50;99.90;;;;;;5001906;28;20504;-69
2022/09/03 07:11:16;;;;;;;4.97;2.37;;;17.50;99.90;;;;;;4996824;28;20911;-69
2022/09/03 07:13:47;;;;;;;7.00;3.10;;;17.50;99.90;;;;;;4992567;28;20792;-69
2022/09/03 07:16:42;;;;;;;16.50;2.23;;;17.70;99.90;;;;;;4993075;28;20421;-69
2022/09/03 07:19:08;;;;;;;3.20;1.93;;;17.70;99.90;;;;;;4992673;28;21040;-69
2022/09/03 07:21:37;;;;;;;4.27;2.20;;;17.90;99.90;;;;;;4992243;28;20499;-69
2022/09/03 07:24:04;;;;;;;2.63;1.60;;;18.00;99.90;;;;;;5005745;28;20190;-69
2022/09/03 07:26:33;;;;;;;2.43;1.33;;;18.10;99.90;;;;;;5002414;28;20425;-69
2022/09/03 07:29:01;;;;;;;5.80;2.13;;;18.20;99.90;;;;;;4995597;28;20429;-69
2022/09/03 07:31:30;;;;;;;3.40;2.20;;;18.30;99.90;;;;;;5002522;28;20505;-69
2022/09/03 07:33:58;;;;;;;5.67;1.97;;;18.30;99.90;;;;;;4991783;28;20451;-69
2022/09/03 07:36:26;;;;;;;4.07;1.80;;;18.50;99.90;;;;;;4996272;28;20421;-70
2022/09/03 07:38:55;;;;;;;3.43;1.47;;;18.70;99.90;;;;;;4997268;28;20423;-70
2022/09/03 07:41:22;;;;;;;3.10;2.00;;;18.90;99.90;;;;;;4990974;28;20427;-70
2022/09/03 07:43:48;;;;;;;2.87;1.80;;;19.20;99.90;;;;;;4990909;28;20904;-69
2022/09/03 07:46:22;;;;;;;4.27;1.80;;;19.30;99.90;;;;;;4991212;28;20418;-70
2022/09/03 07:48:58;;;;;;;2.63;1.50;;;19.30;99.90;;;;;;4991178;28;20433;-70
2022/09/03 07:51:32;;;;;;;5.90;1.73;;;19.40;99.90;;;;;;4990480;28;20458;-70
2022/09/03 07:54:01;;;;;;;3.33;1.40;;;19.60;99.90;;;;;;4991084;28;20494;-70
2022/09/03 07:56:27;;;;;;;2.90;1.70;;;20.40;99.90;;;;;;4993260;28;20418;-70
2022/09/03 07:58:55;;;;;;;4.20;1.80;;;20.90;99.90;;;;;;5002221;28;20415;-72
2022/09/03 08:01:25;;;;;;;3.47;1.50;;;21.00;99.90;;;;;;5004121;28;20745;-70
2022/09/03 08:03:52;;;;;;;3.23;1.20;;;21.00;99.90;;;;;;4993251;28;20421;-69
2022/09/03 08:06:20;;;;;;;6.07;2.20;;;20.90;99.90;;;;;;4994886;28;20419;-70
2022/09/03 08:08:46;;;;;;;2.63;1.47;;;21.00;99.90;;;;;;4995128;28;20457;-69
2022/09/03 08:11:20;;;;;;;3.47;1.60;;;21.20;99.90;;;;;;4994446;28;20441;-69
2022/09/03 08:13:52;;;;;;;1.83;1.03;;;21.30;99.70;;;;;;4994030;28;20458;-69
2022/09/03 08:16:18;;;;;;;3.53;2.17;;;21.20;99.80;;;;;;5008200;28;20499;-69
2022/09/03 08:18:45;;;;;;;2.67;1.30;;;21.00;99.90;;;;;;4994783;28;20505;-69
2022/09/03 08:21:14;;;;;;;7.97;1.90;;;21.00;99.90;;;;;;4999356;28;20553;-69
2022/09/03 08:23:41;;;;;;;3.87;1.63;;;20.80;99.90;;;;;;4996431;28;20429;-69
2022/09/03 08:26:08;;;;;;;2.57;1.30;;;20.90;99.80;;;;;;4995136;28;20501;-69
2022/09/03 08:28:35;;;;;;;2.63;1.43;;;20.80;99.80;;;;;;5004738;28;20437;-69
2022/09/03 08:31:11;;;;;;;2.43;1.20;;;20.60;99.90;;;;;;4994514;28;20485;-69
2022/09/03 08:33:38;;;;;;;2.67;1.50;;;20.50;99.90;;;;;;4992775;28;20446;-70
2022/09/03 08:36:07;;;;;;;4.20;1.73;;;20.50;99.90;;;;;;4999573;28;20426;-69
2022/09/03 08:38:35;;;;;;;3.00;1.37;;;20.60;99.90;;;;;;4992817;28;20953;-70
2022/09/03 08:41:28;;;;;;;3.20;1.43;;;20.70;99.90;;;;;;4994152;28;20419;-70
2022/09/03 08:44:08;;;;;;;2.40;1.17;;;20.80;99.90;;;;;;4993503;28;20435;-70
2022/09/03 08:46:45;;;;;;;2.73;1.30;;;21.10;99.30;;;;;;4993254;28;21054;-70
2022/09/03 08:49:14;;;;;;;5.00;1.80;;;21.20;98.80;;;;;;4995562;28;20426;-70
2022/09/03 08:51:41;;;;;;;3.07;1.50;;;21.20;99.60;;;;;;4994638;28;20431;-70
2022/09/03 08:54:09;;;;;;;3.00;1.63;;;21.30;98.50;;;;;;4993453;28;20467;-70
2022/09/03 08:56:39;;;;;;;2.07;1.17;;;21.20;99.70;;;;;;4999193;28;20860;-70
2022/09/03 08:59:05;;;;;;;2.47;1.37;;;21.20;98.50;;;;;;5012065;28;20433;-70
2022/09/03 09:01:54;;;;;;;3.63;1.90;;;21.10;99.00;;;;;;4997335;28;20415;-70
2022/09/03 09:04:52;;;;;;;2.80;1.47;;;21.00;99.30;;;;;;4993060;28;20180;-70
2022/09/03 09:07:31;;;;;;;4.23;2.50;;;21.00;99.90;;;;;;4994671;28;20421;-70
2022/09/03 09:10:07;;;;;;;6.83;1.90;;;21.20;99.70;;;;;;4994655;28;20513;-70
2022/09/03 09:12:38;;;;;;;6.17;1.40;;;21.20;99.50;;;;;;4992806;28;20469;-70
2022/09/03 09:15:07;;;;;;;5.07;1.33;;;21.10;99.50;;;;;;5001296;28;20419;-70
2022/09/03 09:18:09;;;;;;;2.93;1.40;;;21.20;99.70;;;;;;4998450;28;20433;-70
2022/09/03 09:20:51;;;;;;;3.20;1.47;;;21.30;99.30;;;;;;4993208;28;20438;-70
2022/09/03 09:23:30;;;;;;;3.57;1.87;;;21.40;99.10;;;;;;4993540;28;20443;-70
2022/09/03 09:25:58;;;;;;;4.60;2.23;;;21.40;98.80;;;;;;4994535;28;20421;-70
2022/09/03 09:28:34;;;;;;;3.03;1.80;;;21.70;98.90;;;;;;5002687;28;20415;-71
2022/09/03 09:31:01;;;;;;;5.63;2.70;;;22.00;98.00;;;;;;4994825;28;20914;-71
2022/09/03 09:33:30;;;;;;;3.73;1.70;;;21.90;98.70;;;;;;4993121;28;20472;-70
2022/09/03 09:36:00;;;;;;;3.10;1.43;;;21.80;98.30;;;;;;4994396;28;20429;-70
2022/09/03 09:38:31;;;;;;;3.13;1.60;;;21.80;97.90;;;;;;4993167;28;20414;-69
2022/09/03 09:41:07;;;;;;;2.80;1.70;;;22.10;97.50;;;;;;4980826;28;20465;-69
2022/09/03 09:43:34;;;;;;;2.43;1.20;;;22.20;97.00;;;;;;4992978;28;20509;-69
2022/09/03 09:46:18;;;;;;;3.20;1.63;;;22.40;96.50;;;;;;4993524;28;20808;-69
2022/09/03 09:48:53;;;;;;;3.50;1.70;;;22.30;96.40;;;;;;4998067;28;20480;-69
2022/09/03 09:51:22;;;;;;;3.10;1.40;;;22.40;96.30;;;;;;4997185;28;20437;-69
2022/09/03 09:54:00;;;;;;;4.03;1.50;;;22.30;96.90;;;;;;4987726;28;20541;-69
2022/09/03 09:56:25;;;;;;;3.37;1.07;;;22.00;97.10;;;;;;5000513;28;20414;-69
2022/09/03 09:59:05;;;;;;;2.53;1.30;;;22.00;97.50;;;;;;5004536;28;20429;-69
2022/09/03 10:01:30;;;;;;;2.80;1.37;;;22.10;96.60;;;;;;4996252;28;20183;-69
2022/09/03 10:04:33;;;;;;;3.03;1.27;;;22.10;97.00;;;;;;4999470;28;20753;-69
2022/09/03 10:07:20;;;;;;;2.87;1.43;;;22.20;96.80;;;;;;4992551;28;20203;-68
2022/09/03 10:10:13;;;;;;;4.83;1.60;;;22.20;95.60;;;;;;4991336;28;20431;-69
2022/09/03 10:12:43;;;;;;;2.97;1.43;;;22.10;97.20;;;;;;4985068;28;20449;-69
2022/09/03 10:15:50;;;;;;;2.33;1.23;;;22.50;96.60;;;;;;4989836;28;20899;-69
2022/09/03 10:18:27;;;;;;;2.87;1.53;;;22.80;96.00;;;;;;5025986;28;20436;-69
2022/09/03 10:21:05;;;;;;;4.43;2.23;;;23.10;95.50;;;;;;5026485;28;20814;-69
2022/09/03 10:23:38;;;;;;;2.67;1.00;;;22.90;95.00;;;;;;5008275;28;21291;-68
2022/09/03 10:26:09;;;;;;;3.40;1.63;;;23.20;95.10;;;;;;4991195;28;20426;-69
2022/09/03 10:28:40;;;;;;;4.10;1.63;;;23.20;95.50;;;;;;4996152;28;20437;-69
2022/09/03 10:31:16;;;;;;;2.53;1.43;;;23.10;95.40;;;;;;4991865;28;20434;-68
2022/09/03 10:33:48;;;;;;;3.17;1.70;;;23.10;95.40;;;;;;4991013;28;20458;-68
2022/09/03 10:36:22;;;;;;;3.50;1.67;;;23.10;95.80;;;;;;4991893;28;20970;-68
2022/09/03 10:38:53;;;;;;;2.57;1.27;;;23.30;94.60;;;;;;4991814;28;20426;-68
2022/09/03 10:41:42;;;;;;;2.30;1.10;;;23.30;94.40;;;;;;4993572;28;20426;-68
2022/09/03 10:44:24;;;;;;;2.50;1.67;;;23.10;94.70;;;;;;4992678;28;20426;-70
2022/09/03 10:47:12;;;;;;;3.30;1.40;;;23.00;95.30;;;;;;4994691;28;20418;-69
2022/09/03 10:50:06;;;;;;;4.10;2.03;;;22.80;95.40;;;;;;4992010;28;20481;-69
2022/09/03 10:52:31;;;;;;;2.30;1.40;;;22.80;95.40;;;;;;4988906;28;20449;-69
2022/09/03 10:54:57;;;;;;;3.80;1.30;;;22.70;95.60;;;;;;4991371;28;20422;-69
2022/09/03 10:57:42;;;;;;;3.20;1.60;;;22.80;95.10;;;;;;4991438;28;20221;-69
2022/09/03 11:00:13;;;;;;;4.50;1.63;;;22.70;95.80;;;;;;4991256;28;20410;-69
2022/09/03 11:03:24;;;;;;;3.00;1.63;;;22.70;95.40;;;;;;4991046;28;20425;-69
2022/09/03 11:06:10;;;;;;;4.70;1.73;;;22.50;96.20;;;;;;4983566;28;20509;-69
2022/09/03 11:08:48;;;;;;;3.17;1.93;;;22.50;95.10;;;;;;4990794;28;20419;-69
2022/09/03 11:11:20;;;;;;;4.53;2.17;;;22.40;95.50;;;;;;4988875;28;20481;-69
2022/09/03 11:14:15;;;;;;;2.30;1.23;;;22.10;96.40;;;;;;4989006;28;20495;-69
2022/09/03 11:16:40;;;;;;;3.00;1.70;;;22.00;95.50;;;;;;4987551;28;20450;-68
2022/09/03 11:19:10;;;;;;;2.47;1.30;;;21.80;96.30;;;;;;4991279;28;20880;-69
2022/09/03 11:21:38;;;;;;;4.27;1.87;;;21.70;97.50;;;;;;4990034;28;20270;-68
2022/09/03 11:24:13;;;;;;;3.23;2.03;;;21.50;96.80;;;;;;4998863;28;20430;-68
2022/09/03 11:26:43;;;;;;;3.63;1.83;;;21.30;97.10;;;;;;4990731;28;20429;-68
2022/09/03 11:29:14;;;;;;;2.67;1.50;;;21.20;97.40;;;;;;4998262;28;20430;-67
2022/09/03 11:31:58;;;;;;;2.63;1.10;;;21.00;98.00;;;;;;4991173;28;20976;-68
2022/09/03 11:34:26;;;;;;;3.13;1.70;;;20.90;99.20;;;;;;4989061;28;20467;-68
2022/09/03 11:37:16;;;;;;;4.93;2.27;;;20.70;99.90;;;;;;5004036;28;20968;-68
2022/09/03 11:39:42;;;;;;;4.40;2.17;;;20.50;99.90;;;;;;4989321;28;20443;-68
2022/09/03 11:42:23;;;;;;;3.60;2.13;;;20.30;99.90;;;;;;4993641;28;20422;-67
2022/09/03 11:44:52;;;;;;;2.80;1.80;;;20.00;99.90;;;;;;4990856;28;20453;-67
2022/09/03 11:47:18;;;;;;;4.07;2.17;;;19.60;99.90;;;;;;4990962;28;20410;-67
2022/09/03 11:49:49;;;;;;;4.73;2.40;;;19.30;99.90;;;;;;4988624;28;20844;-66
2022/09/03 11:52:28;;;;;;;4.90;2.40;;;19.00;99.90;;;;;;4987152;28;20189;-66
2022/09/03 11:54:54;;;;;;;5.30;1.70;;;18.70;99.90;;;;;;4991084;28;20466;-65
2022/09/03 11:57:31;;;;;;;5.53;1.10;;;17.80;99.90;;;;;;4990992;28;20473;-64
2022/09/03 12:00:20;;;;;;;2.60;1.00;;;17.00;99.90;;;;;;5004658;28;20816;-64
2022/09/03 12:03:04;;;;;;;13.73;1.80;;;16.40;99.90;;;;;;4992962;28;20426;-65
2022/09/03 12:05:36;;;;;;;7.30;1.40;;;16.10;99.90;;;;;;4992413;28;20427;-65
2022/09/03 12:08:45;;;;;;;7.43;1.10;;;15.80;99.90;;;;;;4991150;28;20499;-65
2022/09/03 12:11:42;;;;;;;3.37;1.30;;;15.60;99.90;;;;;;4995555;28;20416;-65
2022/09/03 12:14:12;;;;;;;4.60;1.30;;;15.40;99.90;;;;;;4995055;28;20478;-64
2022/09/03 12:16:41;;;;;;;2.10;0.83;;;15.30;99.90;;;;;;4989954;28;20844;-64
2022/09/03 12:19:23;;;;;;;2.07;1.00;;;15.20;99.90;;;;;;4991066;28;20418;-64
2022/09/03 12:21:49;;;;;;;2.43;1.20;;;15.20;99.90;;;;;;5002424;28;20414;-66
2022/09/03 12:24:17;;;;;;;1.40;0.70;;;15.10;99.90;;;;;;5005260;28;20421;-66
2022/09/03 12:26:43;;;;;;;2.30;1.10;;;15.10;99.90;;;;;;4990948;28;20673;-66
2022/09/03 12:29:26;;;;;;;2.30;1.00;;;15.20;99.90;;;;;;5000047;28;20427;-66
2022/09/03 12:31:53;;;;;;;1.70;0.83;;;15.30;99.90;;;;;;5003643;28;20274;-64
2022/09/03 12:34:19;;;;;;;1.83;0.70;;;15.30;99.90;;;;;;4990505;28;20462;-67
2022/09/03 12:36:48;;;;;;;1.90;1.10;;;15.30;99.90;;;;;;4991143;28;20419;-65
2022/09/03 12:39:25;;;;;;;1.97;0.80;;;15.30;99.90;;;;;;4992206;28;20455;-64
2022/09/03 12:41:54;;;;;;;1.57;0.83;;;15.40;99.90;;;;;;4990908;28;20638;-65
2022/09/03 12:44:28;;;;;;;2.17;0.90;;;15.50;99.90;;;;;;4992220;28;20457;-65
2022/09/03 12:47:23;;;;;;;3.13;1.10;;;15.60;99.90;;;;;;4992071;28;20434;-65
2022/09/03 12:49:57;;;;;;;1.67;0.70;;;15.80;99.90;;;;;;5006431;28;20434;-65
2022/09/03 12:52:39;;;;;;;1.60;0.90;;;15.90;99.90;;;;;;4994843;28;20445;-66
2022/09/03 12:55:39;;;;;;;1.80;0.70;;;15.90;99.90;;;;;;4995834;28;20465;-65
2022/09/03 12:58:22;;;;;;;1.63;0.60;;;15.90;99.90;;;;;;4994967;28;20513;-63
2022/09/03 13:00:57;;;;;;;2.20;0.80;;;16.00;99.90;;;;;;4995847;28;20411;-64
2022/09/03 13:03:52;;;;;;;3.03;1.10;;;16.10;99.90;;;;;;5013588;28;21197;-64
2022/09/03 13:06:28;;;;;;;2.00;0.80;;;16.20;99.90;;;;;;4999450;28;20430;-64
2022/09/03 13:08:56;;;;;;;3.47;1.30;;;16.40;99.90;;;;;;4995252;28;20419;-64
2022/09/03 13:11:24;;;;;;;1.93;0.80;;;16.50;99.90;;;;;;4995027;28;20509;-64
2022/09/03 13:14:17;;;;;;;1.70;0.80;;;16.60;99.90;;;;;;4994663;28;20451;-66